sensor_id;sensor_type;location;lat;lon;timestamp;P1;durP1;ratioP1;P2;durP2;ratioP2
20344;SDS011;10330;48.816;9.278;2022-12-07T01:19:00;15.10;;;7.28;;
20344;SDS011;10330;48.816;9.278;2022-12-07T01:21:51;12.50;;;7.07;;
20344;SDS011;10330;48.816;9.278;2022-12-07T01:24:37;10.13;;;6.35;;
20344;SDS011;10330;48.816;9.278;2022-12-07T01:27:03;14.30;;;7.28;;
20344;SDS011;10330;48.816;9.278;2022-12-07T01:29:30;11.63;;;6.45;;
20344;SDS011;10330;48.816;9.278;2022-12-07T01:31:56;11.40;;;6.68;;
20344;SDS011;10330;48.816;9.278;2022-12-07T01:34:22;11.02;;;5.97;;
20344;SDS011;10330;48.816;9.278;2022-12-07T01:36:53;13.60;;;6.97;;
20344;SDS011;10330;48.816;9.278;2022-12-07T01:39:23;9.60;;;6.72;;
20344;SDS011;10330;48.816;9.278;2022-12-07T01:41:50;9.77;;;6.78;;
20344;SDS011;10330;48.816;9.278;2022-12-07T01:46:46;12.00;;;7.05;;
20344;SDS011;10330;48.816;9.278;2022-12-07T01:49:38;11.70;;;7.20;;
20344;SDS011;10330;48.816;9.278;2022-12-07T01:54:44;13.10;;;7.97;;
20344;SDS011;10330;48.816;9.278;2022-12-07T01:57:11;11.98;;;6.82;;
20344;SDS011;10330;48.816;9.278;2022-12-07T01:59:40;11.52;;;6.90;;
20344;SDS011;10330;48.816;9.278;2022-12-07T02:02:18;12.32;;;7.22;;
20344;SDS011;10330;48.816;9.278;2022-12-07T02:04:51;10.73;;;6.72;;
20344;SDS011;10330;48.816;9.278;2022-12-07T02:10:33;11.63;;;6.53;;
20344;SDS011;10330;48.816;9.278;2022-12-07T02:15:50;11.60;;;6.30;;
20344;SDS011;10330;48.816;9.278;2022-12-07T02:29:53;13.52;;;7.38;;
20344;SDS011;10330;48.816;9.278;2022-12-07T02:32:27;12.88;;;7.10;;
20344;SDS011;10330;48.816;9.278;2022-12-07T02:35:02;13.32;;;6.93;;
20344;SDS011;10330;48.816;9.278;2022-12-07T02:40:12;11.48;;;6.18;;
20344;SDS011;10330;48.816;9.278;2022-12-07T02:42:51;11.43;;;7.50;;
20344;SDS011;10330;48.816;9.278;2022-12-07T02:45:24;10.80;;;7.35;;
20344;SDS011;10330;48.816;9.278;2022-12-07T02:47:53;12.00;;;6.95;;
20344;SDS011;10330;48.816;9.278;2022-12-07T02:50:27;9.98;;;6.47;;
20344;SDS011;10330;48.816;9.278;2022-12-07T02:52:54;11.70;;;7.40;;
20344;SDS011;10330;48.816;9.278;2022-12-07T02:55:23;12.20;;;7.25;;
20344;SDS011;10330;48.816;9.278;2022-12-07T03:01:04;13.40;;;7.95;;
20344;SDS011;10330;48.816;9.278;2022-12-07T03:03:42;14.77;;;7.05;;
20344;SDS011;10330;48.816;9.278;2022-12-07T03:06:17;13.70;;;7.90;;
20344;SDS011;10330;48.816;9.278;2022-12-07T03:08:57;12.98;;;6.85;;
20344;SDS011;10330;48.816;9.278;2022-12-07T03:12:00;12.18;;;7.40;;
20344;SDS011;10330;48.816;9.278;2022-12-07T03:14:34;13.35;;;7.30;;
20344;SDS011;10330;48.816;9.278;2022-12-07T03:17:07;11.32;;;6.63;;
20344;SDS011;10330;48.816;9.278;2022-12-07T03:19:42;11.90;;;7.25;;
20344;SDS011;10330;48.816;9.278;2022-12-07T03:22:10;13.45;;;7.18;;
20344;SDS011;10330;48.816;9.278;2022-12-07T03:24:42;12.50;;;6.63;;
20344;SDS011;10330;48.816;9.278;2022-12-07T03:30:15;13.48;;;7.28;;
20344;SDS011;10330;48.816;9.278;2022-12-07T03:33:25;11.10;;;6.93;;
20344;SDS011;10330;48.816;9.278;2022-12-07T03:36:38;14.68;;;7.38;;
20344;SDS011;10330;48.816;9.278;2022-12-07T03:42:30;11.32;;;6.72;;
20344;SDS011;10330;48.816;9.278;2022-12-07T03:45:42;15.25;;;7.22;;
20344;SDS011;10330;48.816;9.278;2022-12-07T03:48:28;11.40;;;6.88;;
20344;SDS011;10330;48.816;9.278;2022-12-07T03:51:51;14.30;;;7.25;;
20344;SDS011;10330;48.816;9.278;2022-12-07T03:54:07;12.52;;;7.25;;
20344;SDS011;10330;48.816;9.278;2022-12-07T03:56:48;9.70;;;5.88;;
20344;SDS011;10330;48.816;9.278;2022-12-07T03:59:16;12.98;;;7.50;;
20344;SDS011;10330;48.816;9.278;2022-12-07T04:01:44;10.85;;;6.75;;
20344;SDS011;10330;48.816;9.278;2022-12-07T04:04:17;13.63;;;7.15;;
20344;SDS011;10330;48.816;9.278;2022-12-07T04:06:43;15.85;;;6.60;;
20344;SDS011;10330;48.816;9.278;2022-12-07T04:09:12;11.48;;;6.82;;
20344;SDS011;10330;48.816;9.278;2022-12-07T04:11:40;10.95;;;6.05;;
20344;SDS011;10330;48.816;9.278;2022-12-07T04:14:06;11.90;;;7.25;;
20344;SDS011;10330;48.816;9.278;2022-12-07T04:16:45;10.18;;;6.75;;
20344;SDS011;10330;48.816;9.278;2022-12-07T04:19:12;11.20;;;6.97;;
20344;SDS011;10330;48.816;9.278;2022-12-07T04:21:39;13.80;;;6.80;;
20344;SDS011;10330;48.816;9.278;2022-12-07T04:24:05;10.68;;;6.65;;
20344;SDS011;10330;48.816;9.278;2022-12-07T04:26:32;12.48;;;6.70;;
20344;SDS011;10330;48.816;9.278;2022-12-07T04:28:58;14.00;;;7.07;;
20344;SDS011;10330;48.816;9.278;2022-12-07T04:31:25;14.57;;;7.68;;
20344;SDS011;10330;48.816;9.278;2022-12-07T04:33:51;12.07;;;7.32;;
20344;SDS011;10330;48.816;9.278;2022-12-07T04:36:18;10.20;;;6.75;;
20344;SDS011;10330;48.816;9.278;2022-12-07T04:38:45;10.50;;;6.47;;
20344;SDS011;10330;48.816;9.278;2022-12-07T04:41:12;13.50;;;6.88;;
20344;SDS011;10330;48.816;9.278;2022-12-07T04:43:38;14.27;;;7.55;;
20344;SDS011;10330;48.816;9.278;2022-12-07T04:46:05;15.38;;;8.10;;
20344;SDS011;10330;48.816;9.278;2022-12-07T04:48:35;14.52;;;7.68;;
20344;SDS011;10330;48.816;9.278;2022-12-07T04:51:02;11.63;;;6.30;;
20344;SDS011;10330;48.816;9.278;2022-12-07T04:53:29;12.70;;;6.65;;
20344;SDS011;10330;48.816;9.278;2022-12-07T04:56:01;13.75;;;6.47;;
20344;SDS011;10330;48.816;9.278;2022-12-07T04:58:30;6.57;;;4.63;;
20344;SDS011;10330;48.816;9.278;2022-12-07T05:00:57;7.95;;;5.07;;
20344;SDS011;10330;48.816;9.278;2022-12-07T05:03:23;10.90;;;5.40;;
20344;SDS011;10330;48.816;9.278;2022-12-07T05:05:49;10.27;;;5.78;;
20344;SDS011;10330;48.816;9.278;2022-12-07T05:08:15;8.23;;;5.23;;
20344;SDS011;10330;48.816;9.278;2022-12-07T05:10:42;9.65;;;5.70;;
20344;SDS011;10330;48.816;9.278;2022-12-07T05:13:08;10.13;;;5.80;;
20344;SDS011;10330;48.816;9.278;2022-12-07T05:15:35;14.63;;;7.13;;
20344;SDS011;10330;48.816;9.278;2022-12-07T05:18:01;11.90;;;6.03;;
20344;SDS011;10330;48.816;9.278;2022-12-07T05:20:28;11.50;;;6.35;;
20344;SDS011;10330;48.816;9.278;2022-12-07T05:22:55;29.63;;;12.40;;
20344;SDS011;10330;48.816;9.278;2022-12-07T05:25:24;24.07;;;10.60;;
20344;SDS011;10330;48.816;9.278;2022-12-07T05:27:50;9.93;;;5.75;;
20344;SDS011;10330;48.816;9.278;2022-12-07T05:30:16;9.70;;;6.40;;
20344;SDS011;10330;48.816;9.278;2022-12-07T05:32:42;12.18;;;6.75;;
20344;SDS011;10330;48.816;9.278;2022-12-07T05:35:09;10.48;;;6.53;;
20344;SDS011;10330;48.816;9.278;2022-12-07T05:37:35;11.10;;;6.57;;
20344;SDS011;10330;48.816;9.278;2022-12-07T05:40:02;13.20;;;6.75;;
20344;SDS011;10330;48.816;9.278;2022-12-07T05:42:29;10.17;;;6.90;;
20344;SDS011;10330;48.816;9.278;2022-12-07T05:44:55;13.55;;;7.22;;
20344;SDS011;10330;48.816;9.278;2022-12-07T05:47:22;13.23;;;7.07;;
20344;SDS011;10330;48.816;9.278;2022-12-07T05:49:48;18.37;;;7.77;;
20344;SDS011;10330;48.816;9.278;2022-12-07T05:52:14;11.50;;;6.88;;
20344;SDS011;10330;48.816;9.278;2022-12-07T05:54:41;13.48;;;7.22;;
20344;SDS011;10330;48.816;9.278;2022-12-07T05:57:07;9.25;;;6.03;;
20344;SDS011;10330;48.816;9.278;2022-12-07T05:59:33;12.80;;;7.07;;
20344;SDS011;10330;48.816;9.278;2022-12-07T06:02:04;14.65;;;7.25;;
20344;SDS011;10330;48.816;9.278;2022-12-07T06:04:32;12.82;;;7.00;;
20344;SDS011;10330;48.816;9.278;2022-12-07T06:07:00;11.82;;;7.18;;
20344;SDS011;10330;48.816;9.278;2022-12-07T06:09:26;11.77;;;6.30;;
20344;SDS011;10330;48.816;9.278;2022-12-07T06:11:54;10.13;;;6.90;;
20344;SDS011;10330;48.816;9.278;2022-12-07T06:14:39;10.60;;;7.25;;
20344;SDS011;10330;48.816;9.278;2022-12-07T06:17:06;15.80;;;8.30;;
20344;SDS011;10330;48.816;9.278;2022-12-07T06:19:32;12.65;;;7.60;;
20344;SDS011;10330;48.816;9.278;2022-12-07T06:21:59;14.90;;;7.85;;
20344;SDS011;10330;48.816;9.278;2022-12-07T06:24:25;15.85;;;7.53;;
20344;SDS011;10330;48.816;9.278;2022-12-07T06:26:52;11.50;;;7.45;;
20344;SDS011;10330;48.816;9.278;2022-12-07T06:29:18;12.85;;;7.50;;
20344;SDS011;10330;48.816;9.278;2022-12-07T06:31:44;12.73;;;7.22;;
20344;SDS011;10330;48.816;9.278;2022-12-07T06:34:12;11.50;;;7.13;;
20344;SDS011;10330;48.816;9.278;2022-12-07T06:36:41;11.73;;;6.88;;
20344;SDS011;10330;48.816;9.278;2022-12-07T06:39:07;10.95;;;7.00;;
20344;SDS011;10330;48.816;9.278;2022-12-07T06:41:35;14.45;;;7.28;;
20344;SDS011;10330;48.816;9.278;2022-12-07T06:44:03;9.80;;;6.18;;
20344;SDS011;10330;48.816;9.278;2022-12-07T06:46:30;11.93;;;6.90;;
20344;SDS011;10330;48.816;9.278;2022-12-07T06:48:56;11.15;;;6.78;;
20344;SDS011;10330;48.816;9.278;2022-12-07T06:51:23;12.75;;;7.00;;
20344;SDS011;10330;48.816;9.278;2022-12-07T06:53:49;13.68;;;7.15;;
20344;SDS011;10330;48.816;9.278;2022-12-07T06:56:15;16.15;;;7.15;;
20344;SDS011;10330;48.816;9.278;2022-12-07T06:58:42;12.30;;;6.75;;
20344;SDS011;10330;48.816;9.278;2022-12-07T07:01:09;15.48;;;7.35;;
20344;SDS011;10330;48.816;9.278;2022-12-07T07:03:39;20.13;;;10.10;;
20344;SDS011;10330;48.816;9.278;2022-12-07T07:06:06;22.20;;;10.90;;
20344;SDS011;10330;48.816;9.278;2022-12-07T07:08:33;21.23;;;11.45;;
20344;SDS011;10330;48.816;9.278;2022-12-07T07:11:03;12.55;;;7.05;;
20344;SDS011;10330;48.816;9.278;2022-12-07T07:13:30;10.70;;;6.72;;
20344;SDS011;10330;48.816;9.278;2022-12-07T07:15:56;12.73;;;6.60;;
20344;SDS011;10330;48.816;9.278;2022-12-07T07:18:23;12.60;;;7.70;;
20344;SDS011;10330;48.816;9.278;2022-12-07T07:20:52;14.45;;;7.60;;
20344;SDS011;10330;48.816;9.278;2022-12-07T07:23:22;15.90;;;9.27;;
20344;SDS011;10330;48.816;9.278;2022-12-07T07:25:48;9.80;;;7.60;;
20344;SDS011;10330;48.816;9.278;2022-12-07T07:28:15;13.40;;;8.40;;
20344;SDS011;10330;48.816;9.278;2022-12-07T07:30:41;9.68;;;6.05;;
20344;SDS011;10330;48.816;9.278;2022-12-07T07:33:08;6.07;;;4.97;;
20344;SDS011;10330;48.816;9.278;2022-12-07T07:35:35;10.18;;;6.05;;
20344;SDS011;10330;48.816;9.278;2022-12-07T07:38:02;10.13;;;6.22;;
20344;SDS011;10330;48.816;9.278;2022-12-07T07:40:28;12.57;;;5.63;;
20344;SDS011;10330;48.816;9.278;2022-12-07T07:42:55;11.00;;;5.47;;
20344;SDS011;10330;48.816;9.278;2022-12-07T07:45:22;10.85;;;5.40;;
20344;SDS011;10330;48.816;9.278;2022-12-07T07:47:49;10.15;;;5.25;;
20344;SDS011;10330;48.816;9.278;2022-12-07T07:50:16;10.75;;;5.40;;
20344;SDS011;10330;48.816;9.278;2022-12-07T07:52:43;6.30;;;4.82;;
20344;SDS011;10330;48.816;9.278;2022-12-07T07:55:09;8.18;;;4.93;;
20344;SDS011;10330;48.816;9.278;2022-12-07T07:57:39;7.57;;;4.47;;
20344;SDS011;10330;48.816;9.278;2022-12-07T08:00:07;7.57;;;4.82;;
20344;SDS011;10330;48.816;9.278;2022-12-07T08:02:38;6.95;;;4.65;;
20344;SDS011;10330;48.816;9.278;2022-12-07T08:05:05;9.13;;;4.70;;
20344;SDS011;10330;48.816;9.278;2022-12-07T08:07:31;6.55;;;4.55;;
20344;SDS011;10330;48.816;9.278;2022-12-07T08:09:58;11.57;;;4.15;;
20344;SDS011;10330;48.816;9.278;2022-12-07T08:12:24;7.95;;;4.78;;
20344;SDS011;10330;48.816;9.278;2022-12-07T08:14:50;8.85;;;4.78;;
20344;SDS011;10330;48.816;9.278;2022-12-07T08:17:16;8.82;;;4.82;;
20344;SDS011;10330;48.816;9.278;2022-12-07T08:19:42;7.10;;;4.00;;
20344;SDS011;10330;48.816;9.278;2022-12-07T08:22:08;10.23;;;5.22;;
20344;SDS011;10330;48.816;9.278;2022-12-07T08:24:35;8.45;;;5.38;;
20344;SDS011;10330;48.816;9.278;2022-12-07T08:27:01;7.85;;;4.60;;
20344;SDS011;10330;48.816;9.278;2022-12-07T08:29:28;6.93;;;4.68;;
20344;SDS011;10330;48.816;9.278;2022-12-07T08:31:55;5.90;;;4.43;;
20344;SDS011;10330;48.816;9.278;2022-12-07T08:34:21;8.20;;;4.82;;
20344;SDS011;10330;48.816;9.278;2022-12-07T08:36:47;8.00;;;4.70;;
20344;SDS011;10330;48.816;9.278;2022-12-07T08:39:13;12.50;;;4.80;;
20344;SDS011;10330;48.816;9.278;2022-12-07T08:41:40;7.65;;;4.57;;
20344;SDS011;10330;48.816;9.278;2022-12-07T08:44:06;5.85;;;4.10;;
20344;SDS011;10330;48.816;9.278;2022-12-07T08:46:39;7.00;;;5.22;;
20344;SDS011;10330;48.816;9.278;2022-12-07T08:49:13;13.95;;;5.10;;
20344;SDS011;10330;48.816;9.278;2022-12-07T08:51:40;10.30;;;5.30;;
20344;SDS011;10330;48.816;9.278;2022-12-07T08:54:08;7.22;;;4.68;;
20344;SDS011;10330;48.816;9.278;2022-12-07T08:56:36;7.25;;;4.45;;
20344;SDS011;10330;48.816;9.278;2022-12-07T08:59:04;9.07;;;4.70;;
20344;SDS011;10330;48.816;9.278;2022-12-07T09:01:31;16.65;;;5.68;;
20344;SDS011;10330;48.816;9.278;2022-12-07T09:03:58;7.15;;;4.72;;
20344;SDS011;10330;48.816;9.278;2022-12-07T09:06:24;8.73;;;4.97;;
20344;SDS011;10330;48.816;9.278;2022-12-07T09:08:52;9.98;;;4.97;;
20344;SDS011;10330;48.816;9.278;2022-12-07T09:11:23;9.57;;;4.60;;
20344;SDS011;10330;48.816;9.278;2022-12-07T09:13:49;9.88;;;4.90;;
20344;SDS011;10330;48.816;9.278;2022-12-07T09:16:18;7.97;;;5.05;;
20344;SDS011;10330;48.816;9.278;2022-12-07T09:18:45;8.68;;;4.75;;
20344;SDS011;10330;48.816;9.278;2022-12-07T09:21:11;9.82;;;5.03;;
20344;SDS011;10330;48.816;9.278;2022-12-07T09:23:37;6.43;;;4.45;;
20344;SDS011;10330;48.816;9.278;2022-12-07T09:26:04;6.65;;;4.50;;
20344;SDS011;10330;48.816;9.278;2022-12-07T09:28:31;8.32;;;4.82;;
20344;SDS011;10330;48.816;9.278;2022-12-07T09:30:57;6.47;;;4.97;;
20344;SDS011;10330;48.816;9.278;2022-12-07T09:33:23;7.90;;;4.63;;
20344;SDS011;10330;48.816;9.278;2022-12-07T09:35:50;10.27;;;5.25;;
20344;SDS011;10330;48.816;9.278;2022-12-07T09:38:18;9.23;;;5.40;;
20344;SDS011;10330;48.816;9.278;2022-12-07T09:40:45;11.95;;;5.50;;
20344;SDS011;10330;48.816;9.278;2022-12-07T09:43:19;8.13;;;4.40;;
20344;SDS011;10330;48.816;9.278;2022-12-07T09:45:48;7.32;;;4.65;;
20344;SDS011;10330;48.816;9.278;2022-12-07T09:48:30;10.50;;;4.50;;
20344;SDS011;10330;48.816;9.278;2022-12-07T09:51:02;15.35;;;4.88;;
20344;SDS011;10330;48.816;9.278;2022-12-07T09:53:39;6.68;;;4.40;;
20344;SDS011;10330;48.816;9.278;2022-12-07T09:56:05;7.40;;;4.88;;
20344;SDS011;10330;48.816;9.278;2022-12-07T09:58:32;11.60;;;5.28;;
20344;SDS011;10330;48.816;9.278;2022-12-07T10:03:34;5.82;;;3.78;;
20344;SDS011;10330;48.816;9.278;2022-12-07T10:06:04;4.03;;;3.05;;
20344;SDS011;10330;48.816;9.278;2022-12-07T10:08:31;8.10;;;3.65;;
20344;SDS011;10330;48.816;9.278;2022-12-07T10:10:58;3.72;;;3.00;;
20344;SDS011;10330;48.816;9.278;2022-12-07T10:13:36;5.13;;;3.45;;
20344;SDS011;10330;48.816;9.278;2022-12-07T10:16:04;9.52;;;3.22;;
20344;SDS011;10330;48.816;9.278;2022-12-07T10:21:05;9.43;;;3.03;;
20344;SDS011;10330;48.816;9.278;2022-12-07T10:23:41;6.10;;;3.22;;
20344;SDS011;10330;48.816;9.278;2022-12-07T10:26:37;8.30;;;4.25;;
20344;SDS011;10330;48.816;9.278;2022-12-07T10:32:24;3.47;;;2.72;;
20344;SDS011;10330;48.816;9.278;2022-12-07T10:37:57;9.38;;;4.30;;
20344;SDS011;10330;48.816;9.278;2022-12-07T10:59:38;3.67;;;3.10;;
20344;SDS011;10330;48.816;9.278;2022-12-07T11:15:20;4.68;;;3.25;;
20344;SDS011;10330;48.816;9.278;2022-12-07T11:18:03;6.70;;;4.43;;
20344;SDS011;10330;48.816;9.278;2022-12-07T11:20:37;6.47;;;3.85;;
20344;SDS011;10330;48.816;9.278;2022-12-07T11:35:11;6.60;;;3.25;;
20344;SDS011;10330;48.816;9.278;2022-12-07T11:37:46;4.55;;;2.53;;
20344;SDS011;10330;48.816;9.278;2022-12-07T11:40:28;4.50;;;2.65;;
20344;SDS011;10330;48.816;9.278;2022-12-07T11:46:14;5.53;;;2.78;;
20344;SDS011;10330;48.816;9.278;2022-12-07T11:48:57;7.63;;;3.45;;
20344;SDS011;10330;48.816;9.278;2022-12-07T11:51:30;4.20;;;2.92;;
20344;SDS011;10330;48.816;9.278;2022-12-07T11:54:05;3.22;;;2.55;;
20344;SDS011;10330;48.816;9.278;2022-12-07T11:56:42;5.25;;;3.25;;
20344;SDS011;10330;48.816;9.278;2022-12-07T12:02:14;6.03;;;3.70;;
20344;SDS011;10330;48.816;9.278;2022-12-07T12:04:49;6.50;;;3.92;;
20344;SDS011;10330;48.816;9.278;2022-12-07T12:07:22;8.93;;;4.50;;
20344;SDS011;10330;48.816;9.278;2022-12-07T12:09:53;9.65;;;4.97;;
20344;SDS011;10330;48.816;9.278;2022-12-07T12:20:55;8.32;;;5.82;;
20344;SDS011;10330;48.816;9.278;2022-12-07T12:23:49;6.00;;;4.50;;
20344;SDS011;10330;48.816;9.278;2022-12-07T12:26:49;6.65;;;4.47;;
20344;SDS011;10330;48.816;9.278;2022-12-07T12:29:21;7.53;;;4.70;;
20344;SDS011;10330;48.816;9.278;2022-12-07T12:32:04;8.93;;;5.15;;
20344;SDS011;10330;48.816;9.278;2022-12-07T12:35:34;8.30;;;5.07;;
20344;SDS011;10330;48.816;9.278;2022-12-07T12:37:46;8.75;;;5.03;;
20344;SDS011;10330;48.816;9.278;2022-12-07T12:42:54;8.70;;;4.60;;
20344;SDS011;10330;48.816;9.278;2022-12-07T12:48:00;10.00;;;4.85;;
20344;SDS011;10330;48.816;9.278;2022-12-07T12:50:28;6.35;;;4.50;;
20344;SDS011;10330;48.816;9.278;2022-12-07T13:06:19;6.90;;;4.60;;
20344;SDS011;10330;48.816;9.278;2022-12-07T13:16:40;5.97;;;4.03;;
20344;SDS011;10330;48.816;9.278;2022-12-07T13:22:31;7.20;;;5.07;;
20344;SDS011;10330;48.816;9.278;2022-12-07T13:24:56;13.55;;;5.07;;
20344;SDS011;10330;48.816;9.278;2022-12-07T13:27:31;5.07;;;4.07;;
20344;SDS011;10330;48.816;9.278;2022-12-07T13:30:02;6.80;;;4.57;;
20344;SDS011;10330;48.816;9.278;2022-12-07T13:32:40;6.45;;;4.53;;
20344;SDS011;10330;48.816;9.278;2022-12-07T13:38:02;8.70;;;4.80;;
20344;SDS011;10330;48.816;9.278;2022-12-07T13:40:31;7.35;;;4.60;;
20344;SDS011;10330;48.816;9.278;2022-12-07T13:43:04;9.75;;;5.22;;
20344;SDS011;10330;48.816;9.278;2022-12-07T13:45:38;8.95;;;5.05;;
20344;SDS011;10330;48.816;9.278;2022-12-07T13:48:21;8.80;;;5.45;;
20344;SDS011;10330;48.816;9.278;2022-12-07T13:51:00;8.77;;;5.40;;
20344;SDS011;10330;48.816;9.278;2022-12-07T13:53:28;8.05;;;5.53;;
20344;SDS011;10330;48.816;9.278;2022-12-07T13:55:56;7.35;;;4.95;;
20344;SDS011;10330;48.816;9.278;2022-12-07T13:58:24;8.18;;;5.13;;
20344;SDS011;10330;48.816;9.278;2022-12-07T14:00:55;7.47;;;4.60;;
20344;SDS011;10330;48.816;9.278;2022-12-07T14:06:06;7.55;;;5.28;;
20344;SDS011;10330;48.816;9.278;2022-12-07T14:09:16;9.10;;;5.80;;
20344;SDS011;10330;48.816;9.278;2022-12-07T14:11:45;8.60;;;5.28;;
20344;SDS011;10330;48.816;9.278;2022-12-07T14:14:31;7.47;;;5.70;;
20344;SDS011;10330;48.816;9.278;2022-12-07T14:16:59;9.48;;;6.15;;
20344;SDS011;10330;48.816;9.278;2022-12-07T14:19:40;12.50;;;7.65;;
20344;SDS011;10330;48.816;9.278;2022-12-07T14:22:33;9.88;;;5.65;;
20344;SDS011;10330;48.816;9.278;2022-12-07T14:25:15;9.57;;;5.80;;
20344;SDS011;10330;48.816;9.278;2022-12-07T14:27:48;17.90;;;10.73;;
20344;SDS011;10330;48.816;9.278;2022-12-07T14:30:15;13.48;;;7.63;;
20344;SDS011;10330;48.816;9.278;2022-12-07T14:32:42;9.85;;;4.88;;
20344;SDS011;10330;48.816;9.278;2022-12-07T14:35:15;9.05;;;6.07;;
20344;SDS011;10330;48.816;9.278;2022-12-07T14:37:44;10.85;;;5.95;;
20344;SDS011;10330;48.816;9.278;2022-12-07T14:40:13;8.25;;;5.15;;
20344;SDS011;10330;48.816;9.278;2022-12-07T14:42:41;8.25;;;5.60;;
20344;SDS011;10330;48.816;9.278;2022-12-07T14:45:16;6.68;;;4.97;;
20344;SDS011;10330;48.816;9.278;2022-12-07T14:47:44;9.18;;;5.38;;
20344;SDS011;10330;48.816;9.278;2022-12-07T14:50:11;11.75;;;5.70;;
20344;SDS011;10330;48.816;9.278;2022-12-07T14:52:38;13.15;;;5.60;;
20344;SDS011;10330;48.816;9.278;2022-12-07T14:55:12;9.38;;;6.18;;
20344;SDS011;10330;48.816;9.278;2022-12-07T14:57:41;10.23;;;6.45;;
20344;SDS011;10330;48.816;9.278;2022-12-07T15:00:09;9.90;;;6.15;;
20344;SDS011;10330;48.816;9.278;2022-12-07T15:02:39;14.93;;;7.15;;
20344;SDS011;10330;48.816;9.278;2022-12-07T15:05:05;14.45;;;6.85;;
20344;SDS011;10330;48.816;9.278;2022-12-07T15:07:32;12.40;;;7.05;;
20344;SDS011;10330;48.816;9.278;2022-12-07T15:09:58;10.27;;;6.05;;
20344;SDS011;10330;48.816;9.278;2022-12-07T15:12:24;13.50;;;6.50;;
20344;SDS011;10330;48.816;9.278;2022-12-07T15:14:50;16.58;;;6.90;;
20344;SDS011;10330;48.816;9.278;2022-12-07T15:17:17;11.32;;;6.65;;
20344;SDS011;10330;48.816;9.278;2022-12-07T15:19:43;13.90;;;6.80;;
20344;SDS011;10330;48.816;9.278;2022-12-07T15:22:17;12.77;;;6.57;;
20344;SDS011;10330;48.816;9.278;2022-12-07T15:24:51;20.67;;;7.40;;
20344;SDS011;10330;48.816;9.278;2022-12-07T15:27:32;13.82;;;7.68;;
20344;SDS011;10330;48.816;9.278;2022-12-07T15:29:59;14.13;;;7.10;;
20344;SDS011;10330;48.816;9.278;2022-12-07T15:43:11;17.50;;;8.05;;
20344;SDS011;10330;48.816;9.278;2022-12-07T15:45:59;13.70;;;7.70;;
20344;SDS011;10330;48.816;9.278;2022-12-07T17:01:47;16.52;;;7.93;;
20344;SDS011;10330;48.816;9.278;2022-12-07T17:04:14;17.08;;;7.80;;
20344;SDS011;10330;48.816;9.278;2022-12-07T17:06:40;14.52;;;7.57;;
20344;SDS011;10330;48.816;9.278;2022-12-07T17:09:06;18.48;;;6.85;;
20344;SDS011;10330;48.816;9.278;2022-12-07T17:11:35;18.13;;;7.40;;
20344;SDS011;10330;48.816;9.278;2022-12-07T17:14:01;15.10;;;7.68;;
20344;SDS011;10330;48.816;9.278;2022-12-07T17:16:46;12.40;;;7.15;;
20344;SDS011;10330;48.816;9.278;2022-12-07T17:19:13;14.70;;;7.10;;
20344;SDS011;10330;48.816;9.278;2022-12-07T17:21:41;19.23;;;8.55;;
20344;SDS011;10330;48.816;9.278;2022-12-07T17:24:09;18.95;;;8.57;;
20344;SDS011;10330;48.816;9.278;2022-12-07T17:26:37;13.15;;;7.80;;
20344;SDS011;10330;48.816;9.278;2022-12-07T17:29:04;16.80;;;7.40;;
20344;SDS011;10330;48.816;9.278;2022-12-07T17:42:42;18.33;;;7.88;;
20344;SDS011;10330;48.816;9.278;2022-12-07T17:45:16;16.02;;;8.10;;
20344;SDS011;10330;48.816;9.278;2022-12-07T17:47:42;14.70;;;7.43;;
20344;SDS011;10330;48.816;9.278;2022-12-07T17:50:12;14.15;;;7.22;;
20344;SDS011;10330;48.816;9.278;2022-12-07T17:52:39;11.45;;;6.07;;
20344;SDS011;10330;48.816;9.278;2022-12-07T17:55:24;12.43;;;7.80;;
20344;SDS011;10330;48.816;9.278;2022-12-07T18:01:26;28.35;;;11.18;;
20344;SDS011;10330;48.816;9.278;2022-12-07T18:03:56;36.13;;;13.38;;
20344;SDS011;10330;48.816;9.278;2022-12-07T18:06:22;28.55;;;10.10;;
20344;SDS011;10330;48.816;9.278;2022-12-07T18:09:22;13.93;;;7.80;;
20344;SDS011;10330;48.816;9.278;2022-12-07T18:11:43;16.00;;;7.85;;
20344;SDS011;10330;48.816;9.278;2022-12-07T18:18:02;21.38;;;10.13;;
20344;SDS011;10330;48.816;9.278;2022-12-07T21:38:00;14.63;;;7.40;;
20344;SDS011;10330;48.816;9.278;2022-12-07T21:40:26;13.05;;;6.88;;
20344;SDS011;10330;48.816;9.278;2022-12-07T21:42:52;13.48;;;7.10;;
20344;SDS011;10330;48.816;9.278;2022-12-07T21:45:18;16.10;;;7.57;;
20344;SDS011;10330;48.816;9.278;2022-12-07T21:47:44;10.68;;;6.55;;
20344;SDS011;10330;48.816;9.278;2022-12-07T21:50:11;12.65;;;6.90;;
20344;SDS011;10330;48.816;9.278;2022-12-07T21:55:06;13.55;;;6.82;;
20344;SDS011;10330;48.816;9.278;2022-12-07T21:57:32;11.57;;;6.90;;
20344;SDS011;10330;48.816;9.278;2022-12-07T22:00:08;13.47;;;6.93;;
20344;SDS011;10330;48.816;9.278;2022-12-07T22:03:37;14.32;;;6.28;;
20344;SDS011;10330;48.816;9.278;2022-12-07T22:06:03;11.30;;;6.95;;
20344;SDS011;10330;48.816;9.278;2022-12-07T22:08:29;11.68;;;6.60;;
20344;SDS011;10330;48.816;9.278;2022-12-07T22:10:59;13.52;;;7.07;;
20344;SDS011;10330;48.816;9.278;2022-12-07T22:13:27;11.93;;;6.88;;
20344;SDS011;10330;48.816;9.278;2022-12-07T22:16:16;10.27;;;6.00;;
20344;SDS011;10330;48.816;9.278;2022-12-07T22:18:43;14.68;;;7.40;;
20344;SDS011;10330;48.816;9.278;2022-12-07T22:21:09;10.50;;;5.75;;
20344;SDS011;10330;48.816;9.278;2022-12-07T22:23:35;15.17;;;7.07;;
20344;SDS011;10330;48.816;9.278;2022-12-07T22:26:08;13.07;;;6.63;;
20344;SDS011;10330;48.816;9.278;2022-12-07T22:28:36;12.60;;;6.50;;
20344;SDS011;10330;48.816;9.278;2022-12-07T22:31:04;10.57;;;6.57;;
20344;SDS011;10330;48.816;9.278;2022-12-07T22:33:31;17.73;;;6.55;;
20344;SDS011;10330;48.816;9.278;2022-12-07T22:35:57;17.67;;;8.97;;
20344;SDS011;10330;48.816;9.278;2022-12-07T22:38:24;13.43;;;7.40;;
20344;SDS011;10330;48.816;9.278;2022-12-07T22:40:50;12.65;;;6.70;;
20344;SDS011;10330;48.816;9.278;2022-12-07T22:43:16;12.40;;;6.88;;
20344;SDS011;10330;48.816;9.278;2022-12-07T22:45:42;13.43;;;7.10;;
20344;SDS011;10330;48.816;9.278;2022-12-07T22:48:09;13.73;;;7.03;;
20344;SDS011;10330;48.816;9.278;2022-12-07T22:50:35;17.80;;;8.13;;
20344;SDS011;10330;48.816;9.278;2022-12-07T22:53:02;16.95;;;7.25;;
20344;SDS011;10330;48.816;9.278;2022-12-07T22:55:29;16.50;;;7.27;;
20344;SDS011;10330;48.816;9.278;2022-12-07T22:57:55;14.10;;;7.18;;
20344;SDS011;10330;48.816;9.278;2022-12-07T23:00:36;12.07;;;7.10;;
20344;SDS011;10330;48.816;9.278;2022-12-07T23:03:02;16.17;;;7.37;;
20344;SDS011;10330;48.816;9.278;2022-12-07T23:05:28;18.30;;;7.73;;
20344;SDS011;10330;48.816;9.278;2022-12-07T23:07:58;13.13;;;7.32;;
20344;SDS011;10330;48.816;9.278;2022-12-07T23:10:25;16.90;;;7.90;;
20344;SDS011;10330;48.816;9.278;2022-12-07T23:12:51;11.87;;;6.67;;
20344;SDS011;10330;48.816;9.278;2022-12-07T23:15:36;13.20;;;6.70;;
20344;SDS011;10330;48.816;9.278;2022-12-07T23:18:03;20.20;;;7.00;;
20344;SDS011;10330;48.816;9.278;2022-12-07T23:20:29;14.90;;;6.97;;
20344;SDS011;10330;48.816;9.278;2022-12-07T23:22:55;18.00;;;7.47;;
20344;SDS011;10330;48.816;9.278;2022-12-07T23:25:21;12.73;;;7.43;;
20344;SDS011;10330;48.816;9.278;2022-12-07T23:27:48;15.47;;;7.77;;
20344;SDS011;10330;48.816;9.278;2022-12-07T23:30:14;11.27;;;6.65;;
20344;SDS011;10330;48.816;9.278;2022-12-07T23:32:43;14.10;;;7.53;;
20344;SDS011;10330;48.816;9.278;2022-12-07T23:35:10;15.80;;;6.97;;
20344;SDS011;10330;48.816;9.278;2022-12-07T23:37:36;13.47;;;6.90;;
20344;SDS011;10330;48.816;9.278;2022-12-07T23:40:02;17.77;;;7.47;;